createdAt,value
2019-02-19T00:01:55.279Z,8.10
2019-02-19T00:04:24.777Z,8.10
2019-02-19T00:06:54.339Z,8.20
2019-02-19T00:09:23.855Z,8.20
2019-02-19T00:11:53.388Z,8.20
2019-02-19T00:14:23.011Z,8.00
2019-02-19T00:16:52.518Z,8.10
2019-02-19T00:19:22.001Z,8.10
2019-02-19T00:21:51.757Z,8.10
2019-02-19T00:24:21.523Z,8.10
2019-02-19T00:26:51.141Z,8.20
2019-02-19T00:29:20.615Z,8.20
2019-02-19T00:31:50.269Z,8.20
2019-02-19T00:34:19.794Z,8.20
2019-02-19T00:36:49.328Z,8.20
2019-02-19T00:39:19.029Z,8.20
2019-02-19T00:41:48.550Z,8.20
2019-02-19T00:44:18.206Z,8.20
2019-02-19T00:46:47.659Z,8.20
2019-02-19T00:49:17.387Z,8.20
2019-02-19T00:51:46.990Z,8.20
2019-02-19T00:54:16.499Z,8.20
2019-02-19T00:56:46.017Z,8.10
2019-02-19T00:59:15.386Z,8.00
2019-02-19T01:01:47.063Z,7.80
2019-02-19T01:04:16.731Z,7.70
2019-02-19T01:06:46.563Z,7.60
2019-02-19T01:09:16.251Z,7.60
2019-02-19T01:11:45.997Z,7.60
2019-02-19T01:14:15.755Z,7.60
2019-02-19T01:16:45.440Z,7.70
2019-02-19T01:19:16.402Z,7.90
2019-02-19T01:21:45.918Z,8.10
2019-02-19T01:24:15.602Z,8.10
2019-02-19T01:26:45.435Z,8.20
2019-02-19T01:29:15.032Z,8.30
2019-02-19T01:31:44.670Z,8.30
2019-02-19T01:34:14.399Z,8.30
2019-02-19T01:36:44.049Z,8.30
2019-02-19T01:39:16.626Z,8.30
2019-02-19T01:41:46.368Z,8.20
2019-02-19T01:44:16.073Z,8.20
2019-02-19T01:46:45.810Z,7.90
2019-02-19T01:49:15.419Z,7.80
2019-02-19T01:51:45.008Z,7.70
2019-02-19T01:54:14.539Z,7.70
2019-02-19T01:56:44.186Z,7.90
2019-02-19T01:59:13.864Z,7.90
2019-02-19T02:01:43.340Z,7.90
2019-02-19T02:04:12.813Z,8.00
2019-02-19T02:06:42.312Z,8.00
2019-02-19T02:09:11.897Z,8.00
2019-02-19T02:11:41.866Z,8.00
2019-02-19T02:14:11.391Z,8.00
2019-02-19T02:16:41.824Z,8.10
2019-02-19T02:19:11.442Z,8.10
2019-02-19T02:21:41.957Z,8.10
2019-02-19T02:24:11.418Z,8.00
2019-02-19T02:26:40.819Z,7.80
2019-02-19T02:29:10.283Z,7.50
2019-02-19T02:31:39.770Z,7.30
2019-02-19T02:34:09.271Z,7.20
2019-02-19T02:36:38.691Z,7.10
2019-02-19T02:39:08.311Z,7.00
2019-02-19T02:41:37.991Z,6.90
2019-02-19T02:44:07.728Z,6.80
2019-02-19T02:46:37.234Z,6.70
2019-02-19T02:49:06.910Z,6.80
2019-02-19T02:51:36.445Z,7.10
2019-02-19T02:54:06.043Z,7.30
2019-02-19T02:56:35.604Z,7.60
2019-02-19T02:59:05.270Z,7.80
2019-02-19T03:01:34.781Z,8.00
2019-02-19T03:04:04.268Z,8.00
2019-02-19T03:06:58.692Z,7.70
2019-02-19T03:09:28.431Z,7.40
2019-02-19T03:11:58.582Z,7.30
2019-02-19T03:14:28.059Z,7.30
2019-02-19T03:16:57.589Z,7.30
2019-02-19T03:19:27.166Z,7.70
2019-02-19T03:21:56.917Z,8.00
2019-02-19T03:24:26.493Z,8.30
2019-02-19T03:26:56.021Z,8.50
2019-02-19T03:29:25.585Z,8.60
2019-02-19T03:31:55.093Z,8.70
2019-02-19T03:34:24.589Z,8.80
2019-02-19T03:36:54.101Z,8.80
2019-02-19T03:39:23.618Z,8.80
2019-02-19T03:41:53.389Z,8.80
2019-02-19T03:44:23.241Z,8.70
2019-02-19T03:46:52.776Z,8.50
2019-02-19T03:49:22.462Z,8.30
2019-02-19T03:51:51.925Z,8.10
2019-02-19T03:54:21.454Z,7.90
2019-02-19T03:56:51.268Z,7.80
2019-02-19T03:59:20.708Z,7.80
2019-02-19T04:01:50.614Z,7.80
2019-02-19T04:04:20.107Z,7.80
2019-02-19T04:06:49.707Z,7.80
2019-02-19T04:09:20.933Z,7.80
2019-02-19T04:11:57.348Z,7.80
2019-02-19T04:14:38.474Z,7.80
2019-02-19T04:17:08.068Z,7.80
2019-02-19T04:19:37.635Z,7.80
2019-02-19T04:22:07.600Z,7.80
2019-02-19T04:24:37.285Z,7.80
2019-02-19T04:27:06.876Z,7.70
2019-02-19T04:29:36.530Z,7.70
2019-02-19T04:32:06.254Z,7.70
2019-02-19T04:34:35.722Z,7.80
2019-02-19T04:37:05.467Z,7.70
2019-02-19T04:39:35.138Z,7.80
2019-02-19T04:42:04.901Z,7.80
2019-02-19T04:44:34.543Z,7.80
2019-02-19T04:47:04.385Z,7.70
2019-02-19T04:49:34.413Z,7.70
2019-02-19T04:52:04.113Z,7.70
2019-02-19T04:54:33.803Z,7.80
2019-02-19T04:57:03.434Z,7.80
2019-02-19T04:59:32.985Z,7.90
2019-02-19T05:02:02.706Z,7.90
2019-02-19T05:04:32.225Z,8.00
2019-02-19T05:07:01.786Z,8.00
2019-02-19T05:09:32.111Z,8.00
2019-02-19T05:12:01.629Z,8.00
2019-02-19T05:14:31.296Z,8.10
2019-02-19T05:17:00.749Z,8.10
2019-02-19T05:19:30.204Z,8.10
2019-02-19T05:21:59.746Z,8.10
2019-02-19T05:24:29.269Z,8.20
2019-02-19T05:26:58.736Z,8.20
2019-02-19T05:29:28.412Z,8.20
2019-02-19T05:31:58.027Z,8.20
2019-02-19T05:34:27.653Z,8.20
2019-02-19T05:36:57.170Z,8.20
2019-02-19T05:39:26.848Z,8.20
2019-02-19T05:41:56.506Z,8.10
2019-02-19T05:44:26.166Z,8.00
2019-02-19T05:46:56.028Z,8.00
2019-02-19T05:49:25.652Z,7.90
2019-02-19T05:51:55.376Z,7.80
2019-02-19T05:54:25.997Z,7.60
2019-02-19T05:56:55.654Z,7.50
2019-02-19T05:59:28.938Z,7.20
2019-02-19T06:01:58.516Z,7.00
2019-02-19T06:04:28.378Z,6.80
2019-02-19T06:07:00.393Z,6.70
2019-02-19T06:09:30.331Z,6.70
2019-02-19T06:12:19.406Z,6.80
2019-02-19T06:14:49.244Z,6.80
2019-02-19T06:17:18.868Z,6.80
2019-02-19T06:19:48.669Z,6.80
2019-02-19T06:22:18.385Z,6.80
2019-02-19T06:24:48.193Z,6.90
2019-02-19T06:27:18.085Z,7.00
2019-02-19T06:29:47.657Z,7.00
2019-02-19T06:32:17.608Z,7.10
2019-02-19T06:34:48.109Z,7.10
2019-02-19T06:37:17.790Z,7.10
2019-02-19T06:39:47.298Z,7.10
2019-02-19T06:42:17.177Z,7.10
2019-02-19T06:44:46.931Z,7.10
2019-02-19T06:47:16.609Z,7.20
2019-02-19T06:49:46.301Z,7.20
2019-02-19T06:52:15.847Z,7.20
2019-02-19T06:54:45.502Z,7.20
2019-02-19T06:57:15.304Z,7.20
2019-02-19T06:59:44.940Z,7.20
2019-02-19T07:02:36.470Z,7.20
2019-02-19T07:05:09.844Z,7.20
2019-02-19T07:07:39.549Z,7.30
2019-02-19T07:10:09.184Z,7.30
2019-02-19T07:12:40.411Z,7.30
2019-02-19T07:15:10.395Z,7.30
2019-02-19T07:17:40.177Z,7.30
2019-02-19T07:20:09.854Z,7.30
2019-02-19T07:22:39.498Z,7.30
2019-02-19T07:25:09.161Z,7.20
2019-02-19T07:27:38.798Z,7.20
2019-02-19T07:30:08.714Z,7.20
2019-02-19T07:32:38.511Z,7.20
2019-02-19T07:35:08.253Z,7.30
2019-02-19T07:37:38.171Z,7.30
2019-02-19T07:40:07.956Z,7.30
2019-02-19T07:42:37.655Z,7.30
2019-02-19T07:45:07.960Z,7.30
2019-02-19T07:47:37.914Z,7.20
2019-02-19T07:50:08.334Z,7.30
2019-02-19T07:52:38.093Z,7.20
2019-02-19T07:55:07.871Z,7.20
2019-02-19T07:57:37.625Z,7.30
2019-02-19T08:00:07.910Z,7.30
2019-02-19T08:02:38.023Z,7.40
2019-02-19T08:05:07.938Z,7.50
2019-02-19T08:07:37.628Z,7.50
2019-02-19T08:10:07.867Z,7.60
2019-02-19T08:12:38.443Z,7.70
2019-02-19T08:15:08.757Z,7.80
2019-02-19T08:17:38.543Z,7.90
2019-02-19T08:20:15.478Z,8.00
2019-02-19T08:22:39.895Z,8.10
2019-02-19T08:25:09.958Z,8.20
2019-02-19T08:27:40.793Z,8.40
2019-02-19T08:30:12.043Z,8.50
2019-02-19T08:32:41.738Z,8.70
2019-02-19T08:35:11.685Z,8.80
2019-02-19T08:37:42.283Z,8.90
2019-02-19T08:40:12.128Z,8.90
2019-02-19T08:42:41.845Z,9.00
2019-02-19T08:45:11.557Z,8.90
2019-02-19T08:47:42.880Z,8.80
2019-02-19T08:50:12.648Z,8.80
2019-02-19T08:52:42.966Z,8.80
2019-02-19T08:55:12.717Z,8.80
2019-02-19T08:57:42.555Z,8.70
2019-02-19T09:00:12.397Z,8.80
2019-02-19T09:02:42.235Z,8.90
2019-02-19T09:05:11.938Z,9.00
2019-02-19T09:07:41.671Z,9.10
2019-02-19T09:10:11.583Z,9.10
2019-02-19T09:12:41.225Z,9.10
2019-02-19T09:15:11.398Z,8.90
2019-02-19T09:17:40.986Z,8.80
2019-02-19T09:20:11.007Z,8.90
2019-02-19T09:22:40.690Z,8.90
2019-02-19T09:25:10.444Z,8.90
2019-02-19T09:27:40.472Z,9.00
2019-02-19T09:30:11.524Z,9.20
2019-02-19T09:32:41.161Z,9.50
2019-02-19T09:35:10.828Z,9.90
2019-02-19T09:37:40.507Z,10.00
2019-02-19T09:40:10.420Z,10.30
2019-02-19T09:42:39.988Z,10.50
2019-02-19T09:45:09.784Z,10.60
2019-02-19T09:47:39.569Z,10.80
2019-02-19T09:50:09.492Z,11.00
2019-02-19T09:52:39.440Z,11.90
2019-02-19T09:55:09.231Z,12.20
2019-02-19T09:57:39.056Z,12.60
2019-02-19T10:00:12.306Z,13.30
2019-02-19T10:02:43.832Z,14.00
2019-02-19T10:05:13.830Z,14.70
2019-02-19T10:07:43.414Z,14.20
2019-02-19T10:10:14.488Z,14.00
2019-02-19T10:12:44.103Z,14.70
2019-02-19T10:15:13.845Z,14.00
2019-02-19T10:17:43.495Z,13.60
2019-02-19T10:20:13.534Z,13.90
2019-02-19T10:22:43.275Z,14.40
2019-02-19T10:25:13.700Z,14.80
2019-02-19T10:27:43.638Z,14.90
2019-02-19T10:30:15.020Z,15.00
2019-02-19T10:32:44.933Z,13.60
2019-02-19T10:35:14.722Z,14.10
2019-02-19T10:37:44.567Z,15.70
2019-02-19T10:40:15.230Z,16.60
2019-02-19T10:42:44.804Z,17.90
2019-02-19T10:45:16.841Z,18.30
2019-02-19T10:47:46.365Z,19.00
2019-02-19T10:50:16.796Z,18.70
2019-02-19T10:52:46.572Z,17.50
2019-02-19T10:55:16.743Z,17.10
2019-02-19T10:57:48.366Z,16.30
2019-02-19T11:00:20.072Z,15.90
2019-02-19T11:02:50.285Z,15.30
2019-02-19T11:05:19.970Z,14.60
2019-02-19T11:07:49.609Z,15.10
2019-02-19T11:10:19.251Z,15.90
2019-02-19T11:12:48.956Z,17.10
2019-02-19T11:15:20.301Z,16.50
2019-02-19T11:17:49.997Z,16.10
2019-02-19T11:20:20.324Z,15.50
2019-02-19T11:22:49.908Z,15.70
2019-02-19T11:25:19.573Z,15.50
2019-02-19T11:27:49.096Z,15.20
2019-02-19T11:30:20.342Z,15.60
2019-02-19T11:32:50.077Z,16.70
2019-02-19T11:35:21.203Z,17.80
2019-02-19T11:37:57.319Z,17.30
2019-02-19T11:40:26.939Z,17.80
2019-02-19T11:42:56.574Z,18.30
2019-02-19T11:45:26.223Z,18.20
2019-02-19T11:47:55.862Z,17.60
2019-02-19T11:50:25.553Z,17.70
2019-02-19T11:52:55.115Z,19.20
2019-02-19T11:55:24.886Z,20.40
2019-02-19T11:57:54.565Z,20.90
2019-02-19T12:00:29.646Z,21.00
2019-02-19T12:03:00.182Z,19.90
2019-02-19T12:05:29.922Z,19.80
2019-02-19T12:07:59.604Z,18.70
2019-02-19T12:10:29.265Z,19.30
2019-02-19T12:12:59.384Z,19.50
2019-02-19T12:15:35.221Z,19.40
2019-02-19T12:18:02.512Z,19.00
2019-02-19T12:20:32.170Z,19.70
2019-02-19T12:23:02.057Z,20.30
2019-02-19T12:25:34.591Z,18.40
2019-02-19T12:28:04.542Z,18.60
2019-02-19T12:30:34.317Z,19.80
2019-02-19T12:33:04.151Z,20.50
2019-02-19T12:35:33.843Z,19.20
2019-02-19T12:38:03.636Z,19.60
2019-02-19T12:40:33.445Z,19.70
2019-02-19T12:43:03.305Z,20.30
2019-02-19T12:45:33.671Z,21.20
2019-02-19T12:48:04.044Z,21.20
2019-02-19T12:50:37.444Z,20.40
2019-02-19T12:53:07.194Z,21.00
2019-02-19T12:55:36.838Z,21.60
2019-02-19T12:58:07.418Z,21.40
2019-02-19T13:00:37.014Z,20.40
2019-02-19T13:03:07.329Z,20.30
2019-02-19T13:05:37.121Z,19.70
2019-02-19T13:08:06.808Z,19.50
2019-02-19T13:10:37.775Z,20.10
2019-02-19T13:13:07.512Z,21.10
2019-02-19T13:15:37.105Z,21.20
2019-02-19T13:18:06.931Z,20.50
2019-02-19T13:20:36.644Z,20.00
2019-02-19T13:23:08.098Z,18.80
2019-02-19T13:25:37.686Z,18.60
2019-02-19T13:28:07.525Z,19.80
2019-02-19T13:30:37.186Z,20.10
2019-02-19T13:33:06.780Z,19.70
2019-02-19T13:35:36.489Z,19.80
2019-02-19T13:38:06.276Z,19.80
2019-02-19T13:40:35.810Z,19.40
2019-02-19T13:43:05.307Z,19.30
2019-02-19T13:45:36.405Z,19.10
2019-02-19T13:48:06.321Z,19.40
2019-02-19T13:50:36.112Z,19.70
2019-02-19T13:53:27.413Z,20.00
2019-02-19T13:55:58.326Z,19.50
2019-02-19T13:58:28.039Z,19.00
2019-02-19T14:00:57.754Z,18.80
2019-02-19T14:03:27.429Z,18.70
2019-02-19T14:05:59.403Z,18.40
2019-02-19T14:08:29.252Z,18.10
2019-02-19T14:10:58.965Z,17.50
2019-02-19T14:13:28.721Z,17.40
2019-02-19T14:16:12.481Z,17.50
2019-02-19T14:18:48.775Z,17.40
2019-02-19T14:21:36.622Z,17.10
2019-02-19T14:24:40.100Z,16.50
2019-02-19T14:27:22.211Z,16.60
2019-02-19T14:30:15.252Z,17.20
2019-02-19T14:33:27.407Z,16.60
2019-02-19T14:36:34.463Z,16.50
2019-02-19T14:39:15.876Z,16.30
2019-02-19T14:42:19.864Z,16.30
2019-02-19T14:45:07.040Z,16.50
2019-02-19T14:48:00.615Z,16.80
2019-02-19T14:50:47.864Z,16.60
2019-02-19T14:53:51.910Z,17.00
2019-02-19T14:56:39.208Z,17.20
2019-02-19T14:59:18.512Z,17.50
2019-02-19T15:02:16.542Z,17.10
2019-02-19T15:05:08.064Z,16.60
2019-02-19T15:08:06.224Z,15.90
2019-02-19T15:10:53.583Z,15.70
2019-02-19T15:13:48.424Z,15.80
2019-02-19T15:16:35.865Z,15.80
2019-02-19T15:19:19.993Z,15.50
2019-02-19T15:22:08.943Z,15.10
2019-02-19T15:24:57.639Z,15.10
2019-02-19T15:28:03.157Z,15.00
2019-02-19T15:30:52.980Z,14.70
2019-02-19T15:33:41.450Z,14.40
2019-02-19T15:36:21.625Z,14.50
2019-02-19T15:39:02.169Z,15.10
2019-02-19T15:41:53.963Z,15.00
2019-02-19T15:44:34.660Z,14.50
2019-02-19T15:47:26.246Z,14.00
2019-02-19T15:50:27.962Z,13.60
2019-02-19T15:53:16.635Z,13.20
2019-02-19T15:56:05.475Z,13.00
2019-02-19T15:58:54.214Z,13.00
2019-02-19T16:01:41.618Z,12.90
2019-02-19T16:04:24.051Z,13.00
2019-02-19T16:07:11.548Z,13.00
2019-02-19T16:10:13.429Z,13.30
2019-02-19T16:12:53.031Z,13.00
2019-02-19T16:15:41.717Z,13.20
2019-02-19T16:18:35.065Z,13.10
2019-02-19T16:21:23.929Z,13.00
2019-02-19T16:24:11.572Z,12.70
2019-02-19T16:27:03.575Z,12.50
2019-02-19T16:29:51.055Z,12.30
2019-02-19T16:32:37.556Z,12.10
2019-02-19T16:35:26.950Z,11.90
2019-02-19T16:38:24.649Z,11.80
2019-02-19T16:41:16.235Z,11.60
2019-02-19T16:44:07.122Z,11.50
2019-02-19T16:46:48.767Z,11.30
2019-02-19T16:49:37.607Z,11.20
2019-02-19T16:52:39.078Z,11.10
2019-02-19T16:55:23.752Z,11.10
2019-02-19T16:58:24.993Z,11.00
2019-02-19T17:01:26.431Z,10.90
2019-02-19T17:04:21.241Z,10.90
2019-02-19T17:07:12.969Z,10.80
2019-02-19T17:10:11.017Z,10.70
2019-02-19T17:12:54.067Z,10.60
2019-02-19T17:15:41.602Z,10.60
2019-02-19T17:18:29.849Z,10.60
2019-02-19T17:21:24.832Z,10.40
2019-02-19T17:24:04.737Z,10.40
2019-02-19T17:26:59.816Z,10.40
2019-02-19T17:29:41.588Z,10.20
2019-02-19T17:32:30.206Z,10.20
2019-02-19T17:35:16.666Z,10.10
2019-02-19T17:38:15.003Z,10.00
2019-02-19T17:41:06.522Z,10.00
2019-02-19T17:43:47.321Z,9.80
2019-02-19T17:46:22.860Z,9.80
2019-02-19T17:49:14.721Z,9.70
2019-02-19T17:52:09.755Z,9.60
2019-02-19T17:54:51.915Z,9.60
2019-02-19T17:57:46.645Z,9.50
2019-02-19T18:00:28.985Z,9.40
2019-02-19T18:03:09.502Z,9.40
2019-02-19T18:06:07.586Z,9.30
2019-02-19T18:08:55.639Z,9.30
2019-02-19T18:11:50.737Z,9.30
2019-02-19T18:14:38.306Z,9.20
2019-02-19T18:17:27.958Z,9.20
2019-02-19T18:19:58.075Z,9.10
2019-02-19T18:22:28.044Z,9.10
2019-02-19T18:24:58.065Z,9.10
2019-02-19T18:27:27.944Z,9.00
2019-02-19T18:29:58.182Z,9.00
2019-02-19T18:32:31.866Z,9.00
2019-02-19T18:35:03.219Z,8.90
2019-02-19T18:37:34.889Z,8.90
2019-02-19T18:40:05.032Z,8.90
2019-02-19T18:42:35.013Z,8.90
2019-02-19T18:45:05.775Z,8.90
2019-02-19T18:47:35.947Z,8.90
2019-02-19T18:50:06.435Z,8.80
2019-02-19T18:52:36.537Z,8.70
2019-02-19T18:55:07.058Z,8.70
2019-02-19T18:57:37.170Z,8.60
2019-02-19T19:00:08.282Z,8.60
2019-02-19T19:02:38.136Z,8.60
2019-02-19T19:05:08.487Z,8.60
2019-02-19T19:07:38.558Z,8.60
2019-02-19T19:10:09.419Z,8.50
2019-02-19T19:12:39.360Z,8.40
2019-02-19T19:15:09.590Z,8.40
2019-02-19T19:17:41.788Z,8.30
2019-02-19T19:20:15.955Z,8.30
2019-02-19T19:22:47.166Z,8.20
2019-02-19T19:25:18.397Z,8.20
2019-02-19T19:27:48.640Z,8.30
2019-02-19T19:30:18.656Z,8.30
2019-02-19T19:32:48.717Z,8.30
2019-02-19T19:35:18.978Z,8.30
2019-02-19T19:37:49.983Z,8.30
2019-02-19T19:40:21.441Z,8.30
2019-02-19T19:42:51.462Z,8.30
2019-02-19T19:45:21.480Z,8.30
2019-02-19T19:47:51.597Z,8.30
2019-02-19T19:50:21.777Z,8.30
2019-02-19T19:52:52.253Z,8.30
2019-02-19T19:55:22.989Z,8.30
2019-02-19T19:57:53.703Z,8.30
2019-02-19T20:00:24.106Z,8.30
2019-02-19T20:02:54.331Z,8.30
2019-02-19T20:05:36.051Z,8.20
2019-02-19T20:08:05.943Z,8.20
2019-02-19T20:10:35.951Z,8.20
2019-02-19T20:13:06.007Z,8.20
2019-02-19T20:15:36.213Z,8.10
2019-02-19T20:18:07.876Z,8.10
2019-02-19T20:20:37.950Z,8.10
2019-02-19T20:23:15.221Z,8.10
2019-02-19T20:25:54.195Z,8.10
2019-02-19T20:28:29.074Z,8.00
2019-02-19T20:31:17.992Z,8.00
2019-02-19T20:33:48.324Z,8.00
2019-02-19T20:36:19.104Z,8.00
2019-02-19T20:38:54.572Z,8.00
2019-02-19T20:41:25.947Z,8.00
2019-02-19T20:43:56.399Z,8.00
2019-02-19T20:46:26.494Z,8.00
2019-02-19T20:48:56.942Z,8.00
2019-02-19T20:51:35.920Z,8.00
2019-02-19T20:54:05.265Z,8.00
2019-02-19T20:56:33.682Z,8.00
2019-02-19T20:59:03.725Z,7.90
2019-02-19T21:01:33.714Z,7.90
2019-02-19T21:04:03.625Z,7.90
2019-02-19T21:06:33.585Z,7.90
2019-02-19T21:09:06.193Z,7.90
2019-02-19T21:11:37.847Z,7.90
2019-02-19T21:14:07.953Z,7.90
2019-02-19T21:16:38.633Z,7.90
2019-02-19T21:19:08.787Z,7.90
2019-02-19T21:21:45.009Z,7.90
2019-02-19T21:24:11.384Z,7.90
2019-02-19T21:26:44.154Z,7.80
2019-02-19T21:29:14.149Z,7.80
2019-02-19T21:31:44.007Z,7.70
2019-02-19T21:34:14.016Z,7.70
2019-02-19T21:36:44.105Z,7.60
2019-02-19T21:39:14.031Z,7.50
2019-02-19T21:41:44.132Z,7.40
2019-02-19T21:44:14.013Z,7.10
2019-02-19T21:46:44.102Z,6.70
2019-02-19T21:49:14.079Z,6.50
2019-02-19T21:51:44.190Z,6.20
2019-02-19T21:54:14.262Z,6.00
2019-02-19T21:56:44.297Z,5.80
2019-02-19T21:59:14.259Z,5.70
2019-02-19T22:01:44.113Z,5.60
2019-02-19T22:04:14.097Z,5.50
2019-02-19T22:06:44.026Z,5.50
2019-02-19T22:09:13.658Z,5.50
2019-02-19T22:11:43.427Z,5.50
2019-02-19T22:14:13.146Z,5.50
2019-02-19T22:16:42.605Z,5.50
2019-02-19T22:19:12.181Z,5.40
2019-02-19T22:21:46.798Z,5.40
2019-02-19T22:24:18.799Z,5.40
2019-02-19T22:26:48.462Z,5.40
2019-02-19T22:29:18.215Z,5.40
2019-02-19T22:31:47.943Z,5.30
2019-02-19T22:34:17.642Z,5.30
2019-02-19T22:36:47.145Z,5.30
2019-02-19T22:39:16.765Z,5.30
2019-02-19T22:41:46.452Z,5.30
2019-02-19T22:44:16.589Z,5.30
2019-02-19T22:46:46.148Z,5.30
2019-02-19T22:49:15.923Z,5.30
2019-02-19T22:51:45.579Z,5.40
2019-02-19T22:54:43.400Z,5.40
2019-02-19T22:57:12.896Z,5.40
2019-02-19T22:59:42.353Z,5.30
2019-02-19T23:02:15.770Z,5.20
2019-02-19T23:04:45.475Z,5.20
2019-02-19T23:07:15.150Z,5.20
2019-02-19T23:09:44.773Z,5.10
2019-02-19T23:12:14.302Z,5.10
2019-02-19T23:14:43.812Z,5.00
2019-02-19T23:17:13.626Z,5.00
2019-02-19T23:19:43.072Z,5.00
2019-02-19T23:22:21.180Z,5.00
2019-02-19T23:24:43.789Z,4.90
2019-02-19T23:27:13.593Z,4.90
2019-02-19T23:29:43.122Z,4.90
2019-02-19T23:32:12.846Z,4.90
2019-02-19T23:34:42.669Z,4.90
2019-02-19T23:37:17.816Z,4.90
2019-02-19T23:39:47.579Z,4.80
2019-02-19T23:42:17.137Z,4.90
2019-02-19T23:44:46.635Z,4.90
2019-02-19T23:47:16.174Z,4.90
2019-02-19T23:49:45.928Z,4.90
2019-02-19T23:52:15.454Z,4.80
2019-02-19T23:54:45.195Z,4.80
2019-02-19T23:57:14.905Z,4.80
2019-02-19T23:59:44.658Z,4.80
